sensor_id;sensor_type;location;lat;lon;timestamp;temperature;humidity
14995;DHT22;7593;49.006;8.372;2023-06-14T00:00:34;19.30;70.50
14995;DHT22;7593;49.006;8.372;2023-06-14T00:03:01;19.40;71.00
14995;DHT22;7593;49.006;8.372;2023-06-14T00:05:29;19.30;71.00
14995;DHT22;7593;49.006;8.372;2023-06-14T00:07:58;19.30;71.50
14995;DHT22;7593;49.006;8.372;2023-06-14T00:10:25;19.20;71.40
14995;DHT22;7593;49.006;8.372;2023-06-14T00:12:57;19.20;71.90
14995;DHT22;7593;49.006;8.372;2023-06-14T00:15:25;19.00;72.00
14995;DHT22;7593;49.006;8.372;2023-06-14T00:17:52;19.10;72.40
14995;DHT22;7593;49.006;8.372;2023-06-14T00:20:20;19.00;72.70
14995;DHT22;7593;49.006;8.372;2023-06-14T00:22:47;19.00;73.30
14995;DHT22;7593;49.006;8.372;2023-06-14T00:25:13;19.00;73.60
14995;DHT22;7593;49.006;8.372;2023-06-14T00:27:40;18.90;74.30
14995;DHT22;7593;49.006;8.372;2023-06-14T00:30:09;18.80;74.50
14995;DHT22;7593;49.006;8.372;2023-06-14T00:32:36;18.80;74.90
14995;DHT22;7593;49.006;8.372;2023-06-14T00:35:03;18.70;74.40
14995;DHT22;7593;49.006;8.372;2023-06-14T00:37:30;18.70;74.50
14995;DHT22;7593;49.006;8.372;2023-06-14T00:39:57;18.60;74.80
14995;DHT22;7593;49.006;8.372;2023-06-14T00:42:24;18.60;74.80
14995;DHT22;7593;49.006;8.372;2023-06-14T00:44:52;18.50;74.80
14995;DHT22;7593;49.006;8.372;2023-06-14T00:47:20;18.50;74.70
14995;DHT22;7593;49.006;8.372;2023-06-14T00:49:48;18.50;74.70
14995;DHT22;7593;49.006;8.372;2023-06-14T00:52:16;18.40;74.70
14995;DHT22;7593;49.006;8.372;2023-06-14T00:54:44;18.40;74.40
14995;DHT22;7593;49.006;8.372;2023-06-14T00:57:11;18.40;74.30
14995;DHT22;7593;49.006;8.372;2023-06-14T00:59:42;18.40;74.40
14995;DHT22;7593;49.006;8.372;2023-06-14T01:02:09;18.40;74.50
14995;DHT22;7593;49.006;8.372;2023-06-14T01:04:38;18.30;74.10
14995;DHT22;7593;49.006;8.372;2023-06-14T01:07:11;18.30;74.20
14995;DHT22;7593;49.006;8.372;2023-06-14T01:09:47;18.30;74.00
14995;DHT22;7593;49.006;8.372;2023-06-14T01:12:19;18.30;74.10
14995;DHT22;7593;49.006;8.372;2023-06-14T01:14:48;18.30;74.10
14995;DHT22;7593;49.006;8.372;2023-06-14T01:17:16;18.20;74.10
14995;DHT22;7593;49.006;8.372;2023-06-14T01:19:44;18.20;74.20
14995;DHT22;7593;49.006;8.372;2023-06-14T01:22:11;18.20;74.30
14995;DHT22;7593;49.006;8.372;2023-06-14T01:24:39;18.10;74.50
14995;DHT22;7593;49.006;8.372;2023-06-14T01:27:11;18.10;74.60
14995;DHT22;7593;49.006;8.372;2023-06-14T01:29:38;18.10;75.50
14995;DHT22;7593;49.006;8.372;2023-06-14T01:32:11;18.00;74.70
14995;DHT22;7593;49.006;8.372;2023-06-14T01:34:39;18.00;74.80
14995;DHT22;7593;49.006;8.372;2023-06-14T01:37:06;18.00;75.00
14995;DHT22;7593;49.006;8.372;2023-06-14T01:39:34;17.90;75.20
14995;DHT22;7593;49.006;8.372;2023-06-14T01:42:03;17.90;75.30
14995;DHT22;7593;49.006;8.372;2023-06-14T01:44:30;17.90;75.50
14995;DHT22;7593;49.006;8.372;2023-06-14T01:46:57;17.90;75.50
14995;DHT22;7593;49.006;8.372;2023-06-14T01:49:25;17.90;75.50
14995;DHT22;7593;49.006;8.372;2023-06-14T01:51:52;17.80;75.50
14995;DHT22;7593;49.006;8.372;2023-06-14T01:54:19;17.80;75.60
14995;DHT22;7593;49.006;8.372;2023-06-14T01:56:47;17.70;75.50
14995;DHT22;7593;49.006;8.372;2023-06-14T01:59:15;17.70;75.70
14995;DHT22;7593;49.006;8.372;2023-06-14T02:01:42;17.70;75.70
14995;DHT22;7593;49.006;8.372;2023-06-14T02:04:09;17.70;75.80
14995;DHT22;7593;49.006;8.372;2023-06-14T02:06:35;17.70;75.80
14995;DHT22;7593;49.006;8.372;2023-06-14T02:09:02;17.70;76.00
14995;DHT22;7593;49.006;8.372;2023-06-14T02:11:29;17.60;75.80
14995;DHT22;7593;49.006;8.372;2023-06-14T02:13:56;17.70;75.90
14995;DHT22;7593;49.006;8.372;2023-06-14T02:16:26;17.60;75.50
14995;DHT22;7593;49.006;8.372;2023-06-14T02:18:54;17.60;75.50
14995;DHT22;7593;49.006;8.372;2023-06-14T02:21:22;17.60;75.50
14995;DHT22;7593;49.006;8.372;2023-06-14T02:23:49;17.60;75.70
14995;DHT22;7593;49.006;8.372;2023-06-14T02:26:15;17.60;75.70
14995;DHT22;7593;49.006;8.372;2023-06-14T02:28:42;17.60;75.80
14995;DHT22;7593;49.006;8.372;2023-06-14T02:31:09;17.60;76.70
14995;DHT22;7593;49.006;8.372;2023-06-14T02:33:37;17.50;77.90
14995;DHT22;7593;49.006;8.372;2023-06-14T02:36:04;17.40;78.40
14995;DHT22;7593;49.006;8.372;2023-06-14T02:38:31;17.30;78.80
14995;DHT22;7593;49.006;8.372;2023-06-14T02:40:57;17.20;78.90
14995;DHT22;7593;49.006;8.372;2023-06-14T02:43:28;17.10;79.00
14995;DHT22;7593;49.006;8.372;2023-06-14T02:45:55;17.00;79.60
14995;DHT22;7593;49.006;8.372;2023-06-14T02:48:22;16.90;80.00
14995;DHT22;7593;49.006;8.372;2023-06-14T02:50:50;16.80;80.20
14995;DHT22;7593;49.006;8.372;2023-06-14T02:53:16;16.70;80.80
14995;DHT22;7593;49.006;8.372;2023-06-14T02:55:43;16.60;81.10
14995;DHT22;7593;49.006;8.372;2023-06-14T02:58:10;16.60;81.60
14995;DHT22;7593;49.006;8.372;2023-06-14T03:00:37;16.50;81.90
14995;DHT22;7593;49.006;8.372;2023-06-14T03:03:03;16.50;82.30
14995;DHT22;7593;49.006;8.372;2023-06-14T03:05:37;16.40;82.40
14995;DHT22;7593;49.006;8.372;2023-06-14T03:08:07;16.40;82.50
14995;DHT22;7593;49.006;8.372;2023-06-14T03:10:34;16.40;82.90
14995;DHT22;7593;49.006;8.372;2023-06-14T03:13:01;16.40;83.10
14995;DHT22;7593;49.006;8.372;2023-06-14T03:15:28;16.40;83.40
14995;DHT22;7593;49.006;8.372;2023-06-14T03:17:54;16.40;83.90
14995;DHT22;7593;49.006;8.372;2023-06-14T03:20:21;16.30;84.00
14995;DHT22;7593;49.006;8.372;2023-06-14T03:22:49;16.30;84.20
14995;DHT22;7593;49.006;8.372;2023-06-14T03:25:17;16.30;84.30
14995;DHT22;7593;49.006;8.372;2023-06-14T03:27:44;16.30;84.40
14995;DHT22;7593;49.006;8.372;2023-06-14T03:30:11;16.30;84.30
14995;DHT22;7593;49.006;8.372;2023-06-14T03:32:38;16.30;84.50
14995;DHT22;7593;49.006;8.372;2023-06-14T03:35:05;16.30;84.70
14995;DHT22;7593;49.006;8.372;2023-06-14T03:37:32;16.20;84.60
14995;DHT22;7593;49.006;8.372;2023-06-14T03:39:59;16.20;84.60
14995;DHT22;7593;49.006;8.372;2023-06-14T03:42:27;16.20;84.70
14995;DHT22;7593;49.006;8.372;2023-06-14T03:44:54;16.20;84.80
14995;DHT22;7593;49.006;8.372;2023-06-14T03:47:21;16.20;84.80
14995;DHT22;7593;49.006;8.372;2023-06-14T03:49:47;16.20;84.60
14995;DHT22;7593;49.006;8.372;2023-06-14T03:52:14;16.20;84.60
14995;DHT22;7593;49.006;8.372;2023-06-14T03:54:41;16.20;84.80
14995;DHT22;7593;49.006;8.372;2023-06-14T03:57:09;16.10;84.70
14995;DHT22;7593;49.006;8.372;2023-06-14T03:59:38;16.10;84.80
14995;DHT22;7593;49.006;8.372;2023-06-14T04:02:05;16.10;85.00
14995;DHT22;7593;49.006;8.372;2023-06-14T04:04:32;16.10;85.00
14995;DHT22;7593;49.006;8.372;2023-06-14T04:07:01;16.10;84.70
14995;DHT22;7593;49.006;8.372;2023-06-14T04:09:28;16.10;84.70
14995;DHT22;7593;49.006;8.372;2023-06-14T04:11:55;16.10;84.90
14995;DHT22;7593;49.006;8.372;2023-06-14T04:14:22;16.20;84.90
14995;DHT22;7593;49.006;8.372;2023-06-14T04:16:50;16.20;85.00
14995;DHT22;7593;49.006;8.372;2023-06-14T04:19:17;16.20;84.90
14995;DHT22;7593;49.006;8.372;2023-06-14T04:21:44;16.20;84.80
14995;DHT22;7593;49.006;8.372;2023-06-14T04:24:10;16.20;84.90
14995;DHT22;7593;49.006;8.372;2023-06-14T04:26:39;16.20;85.20
14995;DHT22;7593;49.006;8.372;2023-06-14T04:29:06;16.30;85.40
14995;DHT22;7593;49.006;8.372;2023-06-14T04:31:32;16.30;86.00
14995;DHT22;7593;49.006;8.372;2023-06-14T04:34:01;16.30;86.40
14995;DHT22;7593;49.006;8.372;2023-06-14T04:36:31;16.40;86.70
14995;DHT22;7593;49.006;8.372;2023-06-14T04:39:00;16.40;87.00
14995;DHT22;7593;49.006;8.372;2023-06-14T04:41:28;16.40;87.00
14995;DHT22;7593;49.006;8.372;2023-06-14T04:43:56;16.50;86.90
14995;DHT22;7593;49.006;8.372;2023-06-14T04:46:26;16.50;86.60
14995;DHT22;7593;49.006;8.372;2023-06-14T04:48:54;16.60;87.40
14995;DHT22;7593;49.006;8.372;2023-06-14T04:51:22;16.70;86.90
14995;DHT22;7593;49.006;8.372;2023-06-14T04:53:55;16.70;86.40
14995;DHT22;7593;49.006;8.372;2023-06-14T04:56:23;16.80;85.80
14995;DHT22;7593;49.006;8.372;2023-06-14T04:58:51;16.80;85.50
14995;DHT22;7593;49.006;8.372;2023-06-14T05:01:18;16.90;85.50
14995;DHT22;7593;49.006;8.372;2023-06-14T05:03:46;16.90;85.40
14995;DHT22;7593;49.006;8.372;2023-06-14T05:06:14;17.00;85.70
14995;DHT22;7593;49.006;8.372;2023-06-14T05:08:42;16.90;85.70
14995;DHT22;7593;49.006;8.372;2023-06-14T05:11:09;17.00;86.00
14995;DHT22;7593;49.006;8.372;2023-06-14T05:13:36;17.00;86.10
14995;DHT22;7593;49.006;8.372;2023-06-14T05:16:03;17.00;86.10
14995;DHT22;7593;49.006;8.372;2023-06-14T05:18:29;17.10;86.40
14995;DHT22;7593;49.006;8.372;2023-06-14T05:20:56;17.10;86.50
14995;DHT22;7593;49.006;8.372;2023-06-14T05:23:23;17.20;86.60
14995;DHT22;7593;49.006;8.372;2023-06-14T05:25:51;17.30;86.20
14995;DHT22;7593;49.006;8.372;2023-06-14T05:28:18;17.30;85.60
14995;DHT22;7593;49.006;8.372;2023-06-14T05:30:46;17.40;85.60
14995;DHT22;7593;49.006;8.372;2023-06-14T05:33:13;17.40;85.40
14995;DHT22;7593;49.006;8.372;2023-06-14T05:35:39;17.40;85.40
14995;DHT22;7593;49.006;8.372;2023-06-14T05:38:06;17.50;85.40
14995;DHT22;7593;49.006;8.372;2023-06-14T05:40:33;17.60;85.20
14995;DHT22;7593;49.006;8.372;2023-06-14T05:43:01;17.70;85.30
14995;DHT22;7593;49.006;8.372;2023-06-14T05:45:28;17.80;85.20
14995;DHT22;7593;49.006;8.372;2023-06-14T05:47:54;17.80;84.70
14995;DHT22;7593;49.006;8.372;2023-06-14T05:50:21;17.90;84.60
14995;DHT22;7593;49.006;8.372;2023-06-14T05:52:48;17.90;84.40
14995;DHT22;7593;49.006;8.372;2023-06-14T05:55:16;17.90;84.40
14995;DHT22;7593;49.006;8.372;2023-06-14T05:57:43;17.90;84.50
14995;DHT22;7593;49.006;8.372;2023-06-14T06:00:12;18.00;84.50
14995;DHT22;7593;49.006;8.372;2023-06-14T06:02:40;18.10;84.50
14995;DHT22;7593;49.006;8.372;2023-06-14T06:05:07;18.20;84.30
14995;DHT22;7593;49.006;8.372;2023-06-14T06:07:34;18.20;84.30
14995;DHT22;7593;49.006;8.372;2023-06-14T06:10:00;18.20;84.20
14995;DHT22;7593;49.006;8.372;2023-06-14T06:12:27;18.20;84.30
14995;DHT22;7593;49.006;8.372;2023-06-14T06:14:54;18.30;84.50
14995;DHT22;7593;49.006;8.372;2023-06-14T06:17:23;18.40;84.40
14995;DHT22;7593;49.006;8.372;2023-06-14T06:19:49;18.50;84.20
14995;DHT22;7593;49.006;8.372;2023-06-14T06:22:16;18.60;82.90
14995;DHT22;7593;49.006;8.372;2023-06-14T06:24:43;18.60;83.00
14995;DHT22;7593;49.006;8.372;2023-06-14T06:27:09;18.70;83.70
14995;DHT22;7593;49.006;8.372;2023-06-14T06:29:38;18.80;84.00
14995;DHT22;7593;49.006;8.372;2023-06-14T06:32:05;18.90;82.70
14995;DHT22;7593;49.006;8.372;2023-06-14T06:34:33;19.30;82.30
14995;DHT22;7593;49.006;8.372;2023-06-14T06:37:01;19.70;81.00
14995;DHT22;7593;49.006;8.372;2023-06-14T06:39:27;19.90;80.00
14995;DHT22;7593;49.006;8.372;2023-06-14T06:41:54;20.30;79.20
14995;DHT22;7593;49.006;8.372;2023-06-14T06:44:21;20.60;78.50
14995;DHT22;7593;49.006;8.372;2023-06-14T06:46:48;20.80;77.90
14995;DHT22;7593;49.006;8.372;2023-06-14T06:49:15;21.10;77.50
14995;DHT22;7593;49.006;8.372;2023-06-14T06:51:43;21.20;77.50
14995;DHT22;7593;49.006;8.372;2023-06-14T06:54:10;21.40;76.60
14995;DHT22;7593;49.006;8.372;2023-06-14T06:56:37;21.60;76.30
14995;DHT22;7593;49.006;8.372;2023-06-14T06:59:04;21.80;75.40
14995;DHT22;7593;49.006;8.372;2023-06-14T07:01:30;21.70;75.50
14995;DHT22;7593;49.006;8.372;2023-06-14T07:03:59;21.70;75.30
14995;DHT22;7593;49.006;8.372;2023-06-14T07:06:25;21.80;75.50
14995;DHT22;7593;49.006;8.372;2023-06-14T07:08:54;21.80;75.20
14995;DHT22;7593;49.006;8.372;2023-06-14T07:11:20;21.90;74.50
14995;DHT22;7593;49.006;8.372;2023-06-14T07:13:47;22.00;74.20
14995;DHT22;7593;49.006;8.372;2023-06-14T07:16:14;21.90;74.40
14995;DHT22;7593;49.006;8.372;2023-06-14T07:18:41;22.10;74.20
14995;DHT22;7593;49.006;8.372;2023-06-14T07:21:08;22.40;73.20
14995;DHT22;7593;49.006;8.372;2023-06-14T07:23:35;22.60;72.30
14995;DHT22;7593;49.006;8.372;2023-06-14T07:26:03;22.60;72.20
14995;DHT22;7593;49.006;8.372;2023-06-14T07:28:30;22.70;72.20
14995;DHT22;7593;49.006;8.372;2023-06-14T07:30:57;22.70;71.50
14995;DHT22;7593;49.006;8.372;2023-06-14T07:33:24;22.80;71.40
14995;DHT22;7593;49.006;8.372;2023-06-14T07:35:50;23.00;71.50
14995;DHT22;7593;49.006;8.372;2023-06-14T07:38:18;23.20;70.70
14995;DHT22;7593;49.006;8.372;2023-06-14T07:40:45;23.40;70.10
14995;DHT22;7593;49.006;8.372;2023-06-14T07:43:13;23.60;70.10
14995;DHT22;7593;49.006;8.372;2023-06-14T07:45:40;23.70;70.20
14995;DHT22;7593;49.006;8.372;2023-06-14T07:48:07;23.80;69.90
14995;DHT22;7593;49.006;8.372;2023-06-14T07:50:34;23.90;70.00
14995;DHT22;7593;49.006;8.372;2023-06-14T07:53:00;24.10;70.10
14995;DHT22;7593;49.006;8.372;2023-06-14T07:55:27;24.20;69.00
14995;DHT22;7593;49.006;8.372;2023-06-14T07:57:54;24.20;67.30
14995;DHT22;7593;49.006;8.372;2023-06-14T08:00:22;24.10;67.30
14995;DHT22;7593;49.006;8.372;2023-06-14T08:02:49;24.20;67.50
14995;DHT22;7593;49.006;8.372;2023-06-14T08:05:17;24.30;68.10
14995;DHT22;7593;49.006;8.372;2023-06-14T08:07:44;24.40;67.20
14995;DHT22;7593;49.006;8.372;2023-06-14T08:10:11;24.40;67.10
14995;DHT22;7593;49.006;8.372;2023-06-14T08:12:37;24.60;67.70
14995;DHT22;7593;49.006;8.372;2023-06-14T08:15:05;24.70;67.00
14995;DHT22;7593;49.006;8.372;2023-06-14T08:17:34;25.10;65.70
14995;DHT22;7593;49.006;8.372;2023-06-14T08:20:01;25.30;65.10
14995;DHT22;7593;49.006;8.372;2023-06-14T08:22:29;25.60;64.70
14995;DHT22;7593;49.006;8.372;2023-06-14T08:24:59;25.90;63.70
14995;DHT22;7593;49.006;8.372;2023-06-14T08:27:26;25.90;62.50
14995;DHT22;7593;49.006;8.372;2023-06-14T08:29:53;25.70;62.80
14995;DHT22;7593;49.006;8.372;2023-06-14T08:32:20;25.50;63.20
14995;DHT22;7593;49.006;8.372;2023-06-14T08:34:48;25.20;64.20
14995;DHT22;7593;49.006;8.372;2023-06-14T08:37:15;25.00;64.90
14995;DHT22;7593;49.006;8.372;2023-06-14T08:39:42;24.90;65.30
14995;DHT22;7593;49.006;8.372;2023-06-14T08:42:10;24.90;64.30
14995;DHT22;7593;49.006;8.372;2023-06-14T08:44:38;25.10;64.90
14995;DHT22;7593;49.006;8.372;2023-06-14T08:47:06;25.40;63.60
14995;DHT22;7593;49.006;8.372;2023-06-14T08:49:36;25.50;63.20
14995;DHT22;7593;49.006;8.372;2023-06-14T08:52:08;25.60;63.00
14995;DHT22;7593;49.006;8.372;2023-06-14T08:54:38;25.80;63.10
14995;DHT22;7593;49.006;8.372;2023-06-14T08:57:10;25.80;62.20
14995;DHT22;7593;49.006;8.372;2023-06-14T08:59:43;25.80;62.80
14995;DHT22;7593;49.006;8.372;2023-06-14T09:02:12;25.60;62.90
14995;DHT22;7593;49.006;8.372;2023-06-14T09:04:40;25.70;63.30
14995;DHT22;7593;49.006;8.372;2023-06-14T09:07:08;26.00;63.00
14995;DHT22;7593;49.006;8.372;2023-06-14T09:09:39;26.40;61.90
14995;DHT22;7593;49.006;8.372;2023-06-14T09:12:08;26.70;61.40
14995;DHT22;7593;49.006;8.372;2023-06-14T09:14:36;26.70;61.10
14995;DHT22;7593;49.006;8.372;2023-06-14T09:17:05;26.80;60.90
14995;DHT22;7593;49.006;8.372;2023-06-14T09:19:33;27.00;61.20
14995;DHT22;7593;49.006;8.372;2023-06-14T09:22:01;27.30;61.20
14995;DHT22;7593;49.006;8.372;2023-06-14T09:24:29;27.70;60.20
14995;DHT22;7593;49.006;8.372;2023-06-14T09:26:55;27.80;59.80
14995;DHT22;7593;49.006;8.372;2023-06-14T09:29:23;27.60;58.40
14995;DHT22;7593;49.006;8.372;2023-06-14T09:31:51;27.40;59.50
14995;DHT22;7593;49.006;8.372;2023-06-14T09:34:17;27.30;59.40
14995;DHT22;7593;49.006;8.372;2023-06-14T09:36:49;27.30;59.60
14995;DHT22;7593;49.006;8.372;2023-06-14T09:39:17;27.70;59.40
14995;DHT22;7593;49.006;8.372;2023-06-14T09:41:45;27.90;58.60
14995;DHT22;7593;49.006;8.372;2023-06-14T09:44:12;28.00;58.90
14995;DHT22;7593;49.006;8.372;2023-06-14T09:46:39;28.30;58.80
14995;DHT22;7593;49.006;8.372;2023-06-14T09:49:06;28.30;57.90
14995;DHT22;7593;49.006;8.372;2023-06-14T09:51:33;28.20;58.00
14995;DHT22;7593;49.006;8.372;2023-06-14T09:54:02;28.10;58.30
14995;DHT22;7593;49.006;8.372;2023-06-14T09:56:31;28.10;57.60
14995;DHT22;7593;49.006;8.372;2023-06-14T09:59:00;27.80;57.70
14995;DHT22;7593;49.006;8.372;2023-06-14T10:01:31;27.90;58.30
14995;DHT22;7593;49.006;8.372;2023-06-14T10:04:02;28.30;57.40
14995;DHT22;7593;49.006;8.372;2023-06-14T10:06:29;28.70;57.30
14995;DHT22;7593;49.006;8.372;2023-06-14T10:08:57;28.90;56.50
14995;DHT22;7593;49.006;8.372;2023-06-14T10:11:25;28.90;56.30
14995;DHT22;7593;49.006;8.372;2023-06-14T10:13:53;28.90;56.20
14995;DHT22;7593;49.006;8.372;2023-06-14T10:16:26;28.70;56.00
14995;DHT22;7593;49.006;8.372;2023-06-14T10:19:03;28.30;56.60
14995;DHT22;7593;49.006;8.372;2023-06-14T10:21:37;28.20;57.10
14995;DHT22;7593;49.006;8.372;2023-06-14T10:24:09;28.20;57.20
14995;DHT22;7593;49.006;8.372;2023-06-14T10:26:50;28.20;56.80
14995;DHT22;7593;49.006;8.372;2023-06-14T10:29:17;28.30;56.70
14995;DHT22;7593;49.006;8.372;2023-06-14T10:31:47;28.30;56.40
14995;DHT22;7593;49.006;8.372;2023-06-14T10:34:21;28.20;55.30
14995;DHT22;7593;49.006;8.372;2023-06-14T10:37:01;28.30;55.30
14995;DHT22;7593;49.006;8.372;2023-06-14T10:39:29;28.90;55.10
14995;DHT22;7593;49.006;8.372;2023-06-14T10:41:57;29.40;54.40
14995;DHT22;7593;49.006;8.372;2023-06-14T10:44:34;29.40;54.50
14995;DHT22;7593;49.006;8.372;2023-06-14T10:47:09;29.10;54.80
14995;DHT22;7593;49.006;8.372;2023-06-14T10:49:38;29.00;55.10
14995;DHT22;7593;49.006;8.372;2023-06-14T10:52:08;29.30;54.90
14995;DHT22;7593;49.006;8.372;2023-06-14T10:55:06;29.60;53.90
14995;DHT22;7593;49.006;8.372;2023-06-14T10:57:35;30.10;53.50
14995;DHT22;7593;49.006;8.372;2023-06-14T11:00:03;30.40;52.30
14995;DHT22;7593;49.006;8.372;2023-06-14T11:05:49;31.10;52.00
14995;DHT22;7593;49.006;8.372;2023-06-14T11:08:39;31.20;51.80
14995;DHT22;7593;49.006;8.372;2023-06-14T11:11:08;31.30;52.60
14995;DHT22;7593;49.006;8.372;2023-06-14T11:13:38;31.10;52.10
14995;DHT22;7593;49.006;8.372;2023-06-14T11:16:10;30.80;51.90
14995;DHT22;7593;49.006;8.372;2023-06-14T11:18:37;30.40;52.40
14995;DHT22;7593;49.006;8.372;2023-06-14T11:21:05;30.20;53.10
14995;DHT22;7593;49.006;8.372;2023-06-14T11:23:32;30.10;53.60
14995;DHT22;7593;49.006;8.372;2023-06-14T11:25:59;29.90;54.20
14995;DHT22;7593;49.006;8.372;2023-06-14T11:28:36;29.60;54.80
14995;DHT22;7593;49.006;8.372;2023-06-14T11:31:03;29.70;55.10
14995;DHT22;7593;49.006;8.372;2023-06-14T11:33:30;29.60;54.80
14995;DHT22;7593;49.006;8.372;2023-06-14T11:35:57;29.90;54.60
14995;DHT22;7593;49.006;8.372;2023-06-14T11:38:26;29.90;54.50
14995;DHT22;7593;49.006;8.372;2023-06-14T11:40:53;29.90;54.80
14995;DHT22;7593;49.006;8.372;2023-06-14T11:43:19;29.90;55.00
14995;DHT22;7593;49.006;8.372;2023-06-14T11:45:48;29.90;54.80
14995;DHT22;7593;49.006;8.372;2023-06-14T11:48:15;29.80;54.70
14995;DHT22;7593;49.006;8.372;2023-06-14T11:50:43;29.90;54.60
14995;DHT22;7593;49.006;8.372;2023-06-14T11:53:10;30.00;54.80
14995;DHT22;7593;49.006;8.372;2023-06-14T11:55:38;30.50;54.00
14995;DHT22;7593;49.006;8.372;2023-06-14T11:58:06;30.50;53.40
14995;DHT22;7593;49.006;8.372;2023-06-14T12:00:35;30.70;53.10
14995;DHT22;7593;49.006;8.372;2023-06-14T12:03:02;30.70;53.20
14995;DHT22;7593;49.006;8.372;2023-06-14T12:05:29;30.30;53.80
14995;DHT22;7593;49.006;8.372;2023-06-14T12:07:58;30.20;53.90
14995;DHT22;7593;49.006;8.372;2023-06-14T12:10:26;29.90;53.90
14995;DHT22;7593;49.006;8.372;2023-06-14T12:12:58;29.70;53.60
14995;DHT22;7593;49.006;8.372;2023-06-14T12:15:28;29.50;53.70
14995;DHT22;7593;49.006;8.372;2023-06-14T12:17:56;29.30;54.10
14995;DHT22;7593;49.006;8.372;2023-06-14T12:20:29;29.10;54.90
14995;DHT22;7593;49.006;8.372;2023-06-14T12:22:58;29.10;54.80
14995;DHT22;7593;49.006;8.372;2023-06-14T12:25:27;29.60;54.30
14995;DHT22;7593;49.006;8.372;2023-06-14T12:27:58;29.70;53.60
14995;DHT22;7593;49.006;8.372;2023-06-14T12:30:25;30.10;53.40
14995;DHT22;7593;49.006;8.372;2023-06-14T12:32:52;30.40;52.90
14995;DHT22;7593;49.006;8.372;2023-06-14T12:35:18;30.80;52.60
14995;DHT22;7593;49.006;8.372;2023-06-14T12:37:45;31.70;51.80
14995;DHT22;7593;49.006;8.372;2023-06-14T12:40:12;32.70;49.80
14995;DHT22;7593;49.006;8.372;2023-06-14T12:42:40;33.00;48.90
14995;DHT22;7593;49.006;8.372;2023-06-14T12:45:09;33.30;48.60
14995;DHT22;7593;49.006;8.372;2023-06-14T12:47:36;33.90;48.30
14995;DHT22;7593;49.006;8.372;2023-06-14T12:50:04;34.40;47.80
14995;DHT22;7593;49.006;8.372;2023-06-14T12:52:31;34.70;47.10
14995;DHT22;7593;49.006;8.372;2023-06-14T12:55:01;34.70;47.00
14995;DHT22;7593;49.006;8.372;2023-06-14T12:57:28;34.10;47.60
14995;DHT22;7593;49.006;8.372;2023-06-14T12:59:55;33.30;48.20
14995;DHT22;7593;49.006;8.372;2023-06-14T13:02:23;32.90;48.60
14995;DHT22;7593;49.006;8.372;2023-06-14T13:04:51;32.50;49.10
14995;DHT22;7593;49.006;8.372;2023-06-14T13:07:18;31.90;50.10
14995;DHT22;7593;49.006;8.372;2023-06-14T13:09:44;30.90;51.40
14995;DHT22;7593;49.006;8.372;2023-06-14T13:12:11;30.40;51.90
14995;DHT22;7593;49.006;8.372;2023-06-14T13:14:38;30.20;52.30
14995;DHT22;7593;49.006;8.372;2023-06-14T13:17:06;30.80;51.90
14995;DHT22;7593;49.006;8.372;2023-06-14T13:19:34;31.50;50.90
14995;DHT22;7593;49.006;8.372;2023-06-14T13:22:01;32.50;49.40
14995;DHT22;7593;49.006;8.372;2023-06-14T13:24:29;32.00;49.90
14995;DHT22;7593;49.006;8.372;2023-06-14T13:26:56;31.90;50.00
14995;DHT22;7593;49.006;8.372;2023-06-14T13:29:23;32.00;49.50
14995;DHT22;7593;49.006;8.372;2023-06-14T13:31:50;31.70;49.70
14995;DHT22;7593;49.006;8.372;2023-06-14T13:34:17;31.70;49.90
14995;DHT22;7593;49.006;8.372;2023-06-14T13:36:45;31.70;50.10
14995;DHT22;7593;49.006;8.372;2023-06-14T13:39:12;31.50;49.70
14995;DHT22;7593;49.006;8.372;2023-06-14T13:41:39;31.90;49.40
14995;DHT22;7593;49.006;8.372;2023-06-14T13:44:06;32.20;48.80
14995;DHT22;7593;49.006;8.372;2023-06-14T13:46:32;32.70;48.30
14995;DHT22;7593;49.006;8.372;2023-06-14T13:48:59;33.20;48.00
14995;DHT22;7593;49.006;8.372;2023-06-14T13:51:27;33.00;48.50
14995;DHT22;7593;49.006;8.372;2023-06-14T13:53:55;32.50;48.60
14995;DHT22;7593;49.006;8.372;2023-06-14T13:56:22;32.20;48.60
14995;DHT22;7593;49.006;8.372;2023-06-14T13:58:50;32.20;48.70
14995;DHT22;7593;49.006;8.372;2023-06-14T14:01:16;32.70;48.40
14995;DHT22;7593;49.006;8.372;2023-06-14T14:03:45;33.40;47.50
14995;DHT22;7593;49.006;8.372;2023-06-14T14:06:12;33.70;47.30
14995;DHT22;7593;49.006;8.372;2023-06-14T14:08:39;33.60;47.20
14995;DHT22;7593;49.006;8.372;2023-06-14T14:11:07;32.90;47.60
14995;DHT22;7593;49.006;8.372;2023-06-14T14:13:34;32.20;48.70
14995;DHT22;7593;49.006;8.372;2023-06-14T14:16:02;31.40;49.60
14995;DHT22;7593;49.006;8.372;2023-06-14T14:18:29;30.90;50.20
14995;DHT22;7593;49.006;8.372;2023-06-14T14:20:56;30.80;50.40
14995;DHT22;7593;49.006;8.372;2023-06-14T14:23:22;30.20;50.60
14995;DHT22;7593;49.006;8.372;2023-06-14T14:25:49;30.30;50.50
14995;DHT22;7593;49.006;8.372;2023-06-14T14:28:17;30.60;50.50
14995;DHT22;7593;49.006;8.372;2023-06-14T14:30:46;30.90;49.80
14995;DHT22;7593;49.006;8.372;2023-06-14T14:33:13;31.00;49.50
14995;DHT22;7593;49.006;8.372;2023-06-14T14:35:41;31.00;49.60
14995;DHT22;7593;49.006;8.372;2023-06-14T14:38:08;31.30;49.30
14995;DHT22;7593;49.006;8.372;2023-06-14T14:40:35;31.40;49.10
14995;DHT22;7593;49.006;8.372;2023-06-14T14:43:02;31.60;48.60
14995;DHT22;7593;49.006;8.372;2023-06-14T14:45:30;31.90;48.10
14995;DHT22;7593;49.006;8.372;2023-06-14T14:47:57;32.40;47.50
14995;DHT22;7593;49.006;8.372;2023-06-14T14:50:25;32.70;47.70
14995;DHT22;7593;49.006;8.372;2023-06-14T14:52:52;33.00;47.00
14995;DHT22;7593;49.006;8.372;2023-06-14T14:55:19;32.90;47.20
14995;DHT22;7593;49.006;8.372;2023-06-14T14:57:46;33.00;46.70
14995;DHT22;7593;49.006;8.372;2023-06-14T15:00:13;33.10;46.60
14995;DHT22;7593;49.006;8.372;2023-06-14T15:02:41;33.20;46.40
14995;DHT22;7593;49.006;8.372;2023-06-14T15:05:08;33.10;46.80
14995;DHT22;7593;49.006;8.372;2023-06-14T15:07:35;32.80;46.80
14995;DHT22;7593;49.006;8.372;2023-06-14T15:10:05;32.80;46.90
14995;DHT22;7593;49.006;8.372;2023-06-14T15:12:32;32.60;47.10
14995;DHT22;7593;49.006;8.372;2023-06-14T15:14:59;32.20;47.30
14995;DHT22;7593;49.006;8.372;2023-06-14T15:17:25;31.80;47.90
14995;DHT22;7593;49.006;8.372;2023-06-14T15:19:54;31.20;47.90
14995;DHT22;7593;49.006;8.372;2023-06-14T15:22:20;30.70;48.50
14995;DHT22;7593;49.006;8.372;2023-06-14T15:24:47;30.00;49.10
14995;DHT22;7593;49.006;8.372;2023-06-14T15:27:14;29.80;49.50
14995;DHT22;7593;49.006;8.372;2023-06-14T15:29:41;29.60;50.10
14995;DHT22;7593;49.006;8.372;2023-06-14T15:32:08;30.00;50.20
14995;DHT22;7593;49.006;8.372;2023-06-14T15:34:36;30.20;49.30
14995;DHT22;7593;49.006;8.372;2023-06-14T15:37:06;30.40;49.30
14995;DHT22;7593;49.006;8.372;2023-06-14T15:39:33;31.00;49.10
14995;DHT22;7593;49.006;8.372;2023-06-14T15:42:00;31.50;48.90
14995;DHT22;7593;49.006;8.372;2023-06-14T15:44:26;31.90;48.50
14995;DHT22;7593;49.006;8.372;2023-06-14T15:46:53;31.20;49.20
14995;DHT22;7593;49.006;8.372;2023-06-14T15:49:20;30.20;50.10
14995;DHT22;7593;49.006;8.372;2023-06-14T15:51:47;30.00;50.20